createdAt,value
2023-01-28T00:01:30.083Z,7.07
2023-01-28T00:03:56.683Z,5.38
2023-01-28T00:06:23.267Z,7.78
2023-01-28T00:08:49.957Z,6.78
2023-01-28T00:11:16.492Z,7.80
2023-01-28T00:13:43.278Z,5.97
2023-01-28T00:16:10.243Z,6.10
2023-01-28T00:18:37.588Z,7.15
2023-01-28T00:21:05.271Z,7.88
2023-01-28T00:23:37.296Z,7.20
2023-01-28T00:26:06.409Z,7.00
2023-01-28T00:28:33.352Z,7.80
2023-01-28T00:31:06.919Z,7.85
2023-01-28T00:33:33.607Z,7.20
2023-01-28T00:36:01.477Z,5.88
2023-01-28T00:38:29.104Z,7.78
2023-01-28T00:40:55.945Z,8.23
2023-01-28T00:43:22.566Z,5.70
2023-01-28T00:45:50.308Z,6.22
2023-01-28T00:48:17.060Z,7.03
2023-01-28T00:50:45.644Z,6.97
2023-01-28T00:53:12.331Z,7.38
2023-01-28T00:55:39.137Z,7.32
2023-01-28T00:58:05.916Z,6.63
2023-01-28T01:00:32.538Z,6.03
2023-01-28T01:02:59.624Z,6.20
2023-01-28T01:05:26.462Z,6.68
2023-01-28T01:07:53.109Z,6.85
2023-01-28T01:10:20.130Z,6.63
2023-01-28T01:12:47.689Z,5.75
2023-01-28T01:15:15.073Z,6.47
2023-01-28T01:17:43.726Z,6.75
2023-01-28T01:20:22.322Z,6.72
2023-01-28T01:22:48.871Z,6.13
2023-01-28T01:25:17.474Z,6.65
2023-01-28T01:27:46.249Z,7.55
2023-01-28T01:30:13.103Z,6.47
2023-01-28T01:32:39.670Z,5.47
2023-01-28T01:35:08.379Z,7.00
2023-01-28T01:37:36.312Z,5.72
2023-01-28T01:40:05.202Z,6.90
2023-01-28T01:42:35.076Z,6.47
2023-01-28T01:45:06.063Z,6.32
2023-01-28T01:47:35.626Z,6.28
2023-01-28T01:50:08.040Z,7.13
2023-01-28T01:52:36.380Z,5.80
2023-01-28T01:55:07.443Z,6.53
2023-01-28T01:57:36.178Z,5.78
2023-01-28T02:00:07.549Z,6.25
2023-01-28T02:02:38.237Z,6.28
2023-01-28T02:05:05.637Z,6.80
2023-01-28T02:07:32.290Z,7.72
2023-01-28T02:09:58.956Z,7.03
2023-01-28T02:12:35.087Z,6.28
2023-01-28T02:15:04.979Z,6.18
2023-01-28T02:17:32.214Z,6.53
2023-01-28T02:20:11.597Z,6.53
2023-01-28T02:22:56.013Z,6.35
2023-01-28T02:25:40.610Z,5.03
2023-01-28T02:28:10.270Z,6.20
2023-01-28T02:30:44.381Z,6.30
2023-01-28T02:33:18.353Z,6.18
2023-01-28T02:35:52.738Z,6.05
2023-01-28T02:38:27.017Z,6.57
2023-01-28T02:41:06.615Z,6.10
2023-01-28T02:43:37.414Z,6.10
2023-01-28T02:46:39.976Z,6.40
2023-01-28T02:49:11.822Z,6.57
2023-01-28T02:51:56.949Z,6.13
2023-01-28T02:55:02.098Z,6.13
2023-01-28T02:57:45.597Z,5.88
2023-01-28T03:00:19.927Z,5.60
2023-01-28T03:03:10.249Z,6.32
2023-01-28T03:06:03.321Z,6.65
2023-01-28T03:09:12.901Z,5.30
2023-01-28T03:12:01.979Z,6.45
2023-01-28T03:14:49.185Z,6.35
2023-01-28T03:17:40.425Z,5.88
2023-01-28T03:20:26.434Z,5.97
2023-01-28T03:23:15.002Z,6.13
2023-01-28T03:26:03.567Z,6.13
2023-01-28T03:28:51.290Z,5.15
2023-01-28T03:31:39.676Z,6.50
2023-01-28T03:34:26.246Z,5.72
2023-01-28T03:36:54.548Z,6.63
2023-01-28T03:39:26.854Z,6.57
2023-01-28T03:42:02.354Z,6.20
2023-01-28T03:44:47.263Z,5.90
2023-01-28T03:47:14.320Z,6.65
2023-01-28T03:49:45.854Z,6.90
2023-01-28T03:54:39.718Z,4.95
2023-01-28T03:57:06.242Z,6.85
2023-01-28T03:59:33.499Z,6.30
2023-01-28T04:02:00.415Z,6.85
2023-01-28T04:04:28.193Z,6.18
2023-01-28T04:06:55.345Z,6.68
2023-01-28T04:09:22.753Z,6.20
2023-01-28T04:11:53.590Z,6.53
2023-01-28T04:14:20.138Z,6.07
2023-01-28T04:16:46.962Z,5.97
2023-01-28T04:19:13.853Z,6.68
2023-01-28T04:21:40.450Z,5.45
2023-01-28T04:24:07.757Z,6.43
2023-01-28T04:26:34.297Z,6.50
2023-01-28T04:29:00.829Z,6.45
2023-01-28T04:31:27.878Z,4.28
2023-01-28T04:33:54.417Z,6.07
2023-01-28T04:36:21.000Z,5.57
2023-01-28T04:38:47.944Z,6.10
2023-01-28T04:41:14.447Z,6.18
2023-01-28T04:43:41.208Z,6.18
2023-01-28T04:46:08.051Z,5.50
2023-01-28T04:48:36.489Z,5.68
2023-01-28T04:51:04.041Z,6.53
2023-01-28T04:53:31.191Z,6.38
2023-01-28T04:55:57.889Z,5.82
2023-01-28T04:58:24.484Z,6.28
2023-01-28T05:00:56.143Z,6.07
2023-01-28T05:03:23.523Z,6.22
2023-01-28T05:05:50.327Z,5.60
2023-01-28T05:08:17.543Z,5.65
2023-01-28T05:10:44.523Z,6.18
2023-01-28T05:13:11.241Z,5.72
2023-01-28T05:15:37.883Z,6.40
2023-01-28T05:18:04.640Z,5.15
2023-01-28T05:20:31.118Z,6.35
2023-01-28T05:22:57.775Z,6.43
2023-01-28T05:25:24.403Z,5.53
2023-01-28T05:27:52.224Z,6.20
2023-01-28T05:30:20.141Z,6.63
2023-01-28T05:32:46.884Z,6.50
2023-01-28T05:35:14.170Z,6.70
2023-01-28T05:37:41.001Z,6.32
2023-01-28T05:40:08.071Z,5.95
2023-01-28T05:42:34.564Z,5.45
2023-01-28T05:45:01.187Z,6.78
2023-01-28T05:47:27.849Z,5.40
2023-01-28T05:49:54.342Z,6.18
2023-01-28T05:52:21.015Z,5.53
2023-01-28T05:54:48.414Z,5.95
2023-01-28T05:57:14.972Z,5.93
2023-01-28T05:59:41.676Z,6.60
2023-01-28T06:02:08.301Z,5.68
2023-01-28T06:04:34.790Z,6.18
2023-01-28T06:07:01.457Z,5.80
2023-01-28T06:09:28.101Z,6.55
2023-01-28T06:11:54.581Z,5.20
2023-01-28T06:14:21.192Z,6.38
2023-01-28T06:16:47.796Z,5.47
2023-01-28T06:19:14.304Z,5.90
2023-01-28T06:21:40.930Z,5.72
2023-01-28T06:24:07.806Z,5.38
2023-01-28T06:26:34.318Z,4.78
2023-01-28T06:29:01.143Z,6.15
2023-01-28T06:31:27.768Z,5.05
2023-01-28T06:33:54.411Z,5.70
2023-01-28T06:36:21.031Z,5.07
2023-01-28T06:38:47.849Z,5.82
2023-01-28T06:41:14.348Z,6.13
2023-01-28T06:43:40.910Z,6.05
2023-01-28T06:46:07.618Z,6.20
2023-01-28T06:48:34.250Z,4.78
2023-01-28T06:51:00.898Z,6.45
2023-01-28T06:53:27.707Z,5.50
2023-01-28T06:55:54.259Z,6.22
2023-01-28T06:58:21.024Z,6.93
2023-01-28T07:00:47.659Z,5.60
2023-01-28T07:03:14.230Z,5.32
2023-01-28T07:05:41.124Z,5.38
2023-01-28T07:08:07.777Z,5.88
2023-01-28T07:10:34.438Z,5.57
2023-01-28T07:13:01.139Z,6.22
2023-01-28T07:15:27.781Z,5.90
2023-01-28T07:17:54.333Z,6.22
2023-01-28T07:20:21.155Z,5.45
2023-01-28T07:22:47.934Z,5.13
2023-01-28T07:25:15.246Z,6.20
2023-01-28T07:27:52.958Z,5.05
2023-01-28T07:30:20.787Z,5.80
2023-01-28T07:32:52.489Z,5.82
2023-01-28T07:35:19.151Z,6.45
2023-01-28T07:37:52.884Z,5.65
2023-01-28T07:40:19.731Z,5.55
2023-01-28T07:42:46.286Z,5.80
2023-01-28T07:45:13.321Z,5.75
2023-01-28T07:47:39.972Z,5.20
2023-01-28T07:50:06.789Z,4.82
2023-01-28T07:52:38.856Z,6.40
2023-01-28T07:55:05.845Z,6.68
2023-01-28T07:57:32.388Z,5.35
2023-01-28T07:59:58.875Z,5.85
2023-01-28T08:02:25.551Z,6.00
2023-01-28T08:04:52.170Z,6.13
2023-01-28T08:07:18.738Z,5.53
2023-01-28T08:09:45.520Z,5.78
2023-01-28T08:12:12.064Z,6.18
2023-01-28T08:14:38.574Z,6.63
2023-01-28T08:17:05.336Z,5.40
2023-01-28T08:19:31.898Z,5.28
2023-01-28T08:21:58.382Z,5.45
2023-01-28T08:24:25.070Z,5.70
2023-01-28T08:26:51.666Z,4.82
2023-01-28T08:29:18.211Z,5.82
2023-01-28T08:31:44.907Z,5.57
2023-01-28T08:34:11.970Z,5.50
2023-01-28T08:36:38.450Z,6.03
2023-01-28T08:39:06.127Z,5.75
2023-01-28T08:41:32.664Z,4.70
2023-01-28T08:44:00.403Z,5.97
2023-01-28T08:46:27.141Z,5.78
2023-01-28T08:48:53.633Z,5.22
2023-01-28T08:51:20.128Z,4.05
2023-01-28T08:53:46.868Z,5.75
2023-01-28T08:56:14.378Z,6.45
2023-01-28T08:58:41.282Z,5.88
2023-01-28T09:01:07.984Z,5.93
2023-01-28T09:03:36.131Z,5.70
2023-01-28T09:06:04.148Z,5.60
2023-01-28T09:08:31.024Z,5.57
2023-01-28T09:10:58.495Z,6.13
2023-01-28T09:13:25.740Z,5.80
2023-01-28T09:15:52.582Z,5.25
2023-01-28T09:18:19.696Z,6.50
2023-01-28T09:20:46.283Z,6.47
2023-01-28T09:23:13.314Z,5.72
2023-01-28T09:25:40.296Z,5.72
2023-01-28T09:28:07.507Z,5.38
2023-01-28T09:30:37.230Z,5.57
2023-01-28T09:33:04.115Z,5.93
2023-01-28T09:35:30.877Z,6.05
2023-01-28T09:37:59.248Z,5.93
2023-01-28T09:40:36.436Z,4.82
2023-01-28T09:43:13.563Z,5.95
2023-01-28T09:45:47.087Z,6.25
2023-01-28T09:48:21.861Z,6.20
2023-01-28T09:50:53.473Z,6.32
2023-01-28T09:53:27.765Z,6.07
2023-01-28T09:55:56.120Z,5.72
2023-01-28T09:58:22.742Z,6.63
2023-01-28T10:01:19.945Z,5.30
2023-01-28T10:03:55.808Z,6.45
2023-01-28T10:06:50.717Z,6.30
2023-01-28T10:09:54.972Z,5.63
2023-01-28T10:12:38.534Z,6.13
2023-01-28T10:15:25.276Z,6.05
2023-01-28T10:18:07.236Z,5.40
2023-01-28T10:20:49.067Z,5.70
2023-01-28T10:23:28.295Z,6.30
2023-01-28T10:25:58.003Z,6.55
2023-01-28T10:28:29.506Z,6.35
2023-01-28T10:30:56.291Z,6.15
2023-01-28T10:33:33.488Z,5.72
2023-01-28T10:36:00.715Z,5.38
2023-01-28T10:38:28.206Z,5.80
2023-01-28T10:41:01.221Z,6.03
2023-01-28T10:43:32.599Z,4.55
2023-01-28T10:48:38.867Z,5.38
2023-01-28T10:51:06.454Z,5.53
2023-01-28T10:53:37.938Z,6.00
2023-01-28T10:56:08.529Z,5.50
2023-01-28T10:58:46.921Z,5.40
2023-01-28T11:01:13.445Z,5.72
2023-01-28T11:03:53.246Z,6.63
2023-01-28T11:06:25.539Z,5.03
2023-01-28T11:08:52.198Z,5.10
2023-01-28T11:11:26.585Z,5.63
2023-01-28T11:13:55.592Z,5.18
2023-01-28T11:16:22.283Z,5.55
2023-01-28T11:18:53.495Z,5.53
2023-01-28T11:21:23.698Z,4.78
2023-01-28T11:24:14.116Z,4.95
2023-01-28T11:26:45.771Z,5.50
2023-01-28T11:29:25.008Z,5.30
2023-01-28T11:31:51.925Z,5.03
2023-01-28T11:34:19.797Z,4.40
2023-01-28T11:36:55.115Z,5.35
2023-01-28T11:39:28.618Z,4.50
2023-01-28T11:42:03.525Z,4.75
2023-01-28T11:44:30.657Z,4.45
2023-01-28T11:47:31.835Z,5.20
2023-01-28T11:50:04.720Z,5.40
2023-01-28T11:53:06.024Z,5.82
2023-01-28T11:55:40.424Z,4.93
2023-01-28T11:58:49.045Z,5.10
2023-01-28T12:01:34.251Z,5.00
2023-01-28T12:04:07.341Z,5.38
2023-01-28T12:06:42.762Z,4.68
2023-01-28T12:09:33.356Z,5.07
2023-01-28T12:12:11.970Z,5.15
2023-01-28T12:14:38.822Z,5.35
2023-01-28T12:17:22.145Z,4.63
2023-01-28T12:20:09.888Z,5.20
2023-01-28T12:22:42.295Z,4.70
2023-01-28T12:25:48.035Z,4.53
2023-01-28T12:28:35.030Z,5.38
2023-01-28T12:31:29.972Z,4.78
2023-01-28T12:34:33.802Z,4.40
2023-01-28T12:37:17.082Z,5.15
2023-01-28T12:40:21.153Z,4.75
2023-01-28T12:42:54.124Z,4.53
2023-01-28T12:45:26.963Z,4.75
2023-01-28T12:48:03.668Z,4.80
2023-01-28T12:50:37.748Z,4.72
2023-01-28T12:53:20.313Z,4.88
2023-01-28T12:56:08.647Z,4.82
2023-01-28T12:58:58.908Z,4.53
2023-01-28T13:01:40.539Z,4.20
2023-01-28T13:04:17.341Z,4.82
2023-01-28T13:06:56.818Z,4.80
2023-01-28T13:09:26.390Z,4.95
2023-01-28T13:11:57.049Z,4.70
2023-01-28T13:14:29.583Z,4.22
2023-01-28T13:16:56.352Z,4.60
2023-01-28T13:19:25.754Z,4.32
2023-01-28T13:21:52.721Z,3.65
2023-01-28T13:24:22.701Z,4.43
2023-01-28T13:26:55.190Z,4.50
2023-01-28T13:29:30.659Z,5.00
2023-01-28T13:32:01.178Z,4.18
2023-01-28T13:34:36.176Z,4.30
2023-01-28T13:37:36.708Z,5.50
2023-01-28T13:40:27.788Z,4.97
2023-01-28T13:43:06.564Z,3.95
2023-01-28T13:45:34.187Z,4.75
2023-01-28T13:48:16.073Z,4.55
2023-01-28T13:50:43.417Z,3.85
2023-01-28T13:53:40.135Z,4.00
2023-01-28T13:56:17.931Z,4.35
2023-01-28T13:59:17.401Z,4.40
2023-01-28T14:01:57.600Z,4.53
2023-01-28T14:04:45.660Z,4.60
2023-01-28T14:07:41.502Z,4.43
2023-01-28T14:10:32.248Z,4.30
2023-01-28T14:13:24.783Z,4.22
2023-01-28T14:16:10.088Z,4.75
2023-01-28T14:18:43.807Z,4.10
2023-01-28T14:21:15.407Z,4.55
2023-01-28T14:23:51.688Z,4.20
2023-01-28T14:26:24.169Z,4.13
2023-01-28T14:29:02.967Z,4.30
2023-01-28T14:31:37.246Z,3.75
2023-01-28T14:34:16.700Z,4.22
2023-01-28T14:36:45.567Z,4.10
2023-01-28T14:39:18.111Z,4.18
2023-01-28T14:41:47.825Z,4.30
2023-01-28T14:44:28.674Z,4.32
2023-01-28T14:47:02.505Z,4.38
2023-01-28T14:50:09.612Z,4.82
2023-01-28T14:52:54.446Z,4.28
2023-01-28T14:55:33.230Z,3.75
2023-01-28T14:58:09.067Z,4.30
2023-01-28T15:00:36.625Z,4.43
2023-01-28T15:03:24.865Z,4.20
2023-01-28T15:06:16.675Z,3.47
2023-01-28T15:08:43.407Z,3.88
2023-01-28T15:11:14.395Z,4.30
2023-01-28T15:13:45.133Z,4.22
2023-01-28T15:16:21.655Z,4.38
2023-01-28T15:18:50.984Z,3.38
2023-01-28T15:21:25.850Z,3.95
2023-01-28T15:23:57.422Z,4.13
2023-01-28T15:26:27.326Z,4.38
2023-01-28T15:28:55.678Z,3.63
2023-01-28T15:31:25.241Z,4.30
2023-01-28T15:34:02.088Z,4.32
2023-01-28T15:36:30.399Z,4.80
2023-01-28T15:38:57.707Z,4.00
2023-01-28T15:41:29.778Z,4.15
2023-01-28T15:43:56.578Z,4.03
2023-01-28T15:46:23.172Z,4.03
2023-01-28T15:49:01.354Z,4.30
2023-01-28T15:51:34.035Z,3.97
2023-01-28T15:54:05.537Z,4.18
2023-01-28T15:56:32.353Z,4.05
2023-01-28T15:59:16.084Z,4.00
2023-01-28T16:01:43.411Z,4.00
2023-01-28T16:04:28.568Z,3.15
2023-01-28T16:06:58.751Z,4.47
2023-01-28T16:09:31.118Z,4.28
2023-01-28T16:12:07.414Z,3.72
2023-01-28T16:14:37.794Z,4.15
2023-01-28T16:17:04.344Z,4.28
2023-01-28T16:19:41.190Z,4.28
2023-01-28T16:22:09.199Z,2.92
2023-01-28T16:24:36.484Z,4.00
2023-01-28T16:27:07.002Z,3.63
2023-01-28T16:29:33.894Z,4.00
2023-01-28T16:32:01.418Z,4.68
2023-01-28T16:34:28.171Z,3.80
2023-01-28T16:37:01.671Z,3.63
2023-01-28T16:39:28.395Z,4.00
2023-01-28T16:41:57.065Z,3.75
2023-01-28T16:44:23.636Z,4.30
2023-01-28T16:46:50.286Z,3.95
2023-01-28T16:49:17.053Z,4.18
2023-01-28T16:51:46.440Z,3.67
2023-01-28T16:54:15.727Z,3.67
2023-01-28T16:56:46.263Z,4.28
2023-01-28T16:59:14.988Z,4.07
2023-01-28T17:01:42.463Z,3.90
2023-01-28T17:04:11.903Z,3.90
2023-01-28T17:06:44.668Z,3.95
2023-01-28T17:09:13.198Z,4.20
2023-01-28T17:11:40.734Z,4.68
2023-01-28T17:14:07.485Z,3.95
2023-01-28T17:16:34.219Z,4.30
2023-01-28T17:19:00.900Z,3.92
2023-01-28T17:21:27.436Z,4.20
2023-01-28T17:23:54.197Z,3.03
2023-01-28T17:26:20.705Z,3.75
2023-01-28T17:28:53.511Z,3.97
2023-01-28T17:31:20.641Z,4.60
2023-01-28T17:33:47.288Z,4.65
2023-01-28T17:36:14.308Z,3.67
2023-01-28T17:38:44.753Z,4.20
2023-01-28T17:41:13.081Z,4.32
2023-01-28T17:43:39.632Z,4.22
2023-01-28T17:46:13.811Z,3.78
2023-01-28T17:48:40.916Z,4.07
2023-01-28T17:51:07.476Z,4.40
2023-01-28T17:53:34.260Z,4.40
2023-01-28T17:56:00.896Z,4.30
2023-01-28T17:58:27.551Z,4.45
2023-01-28T18:00:54.336Z,4.60
2023-01-28T18:03:21.036Z,4.13
2023-01-28T18:05:59.097Z,5.03
2023-01-28T18:08:26.523Z,4.68
2023-01-28T18:10:53.275Z,4.20
2023-01-28T18:13:19.893Z,4.00
2023-01-28T18:15:46.431Z,4.75
2023-01-28T18:18:12.951Z,4.40
2023-01-28T18:20:39.635Z,4.10
2023-01-28T18:23:06.207Z,4.38
2023-01-28T18:25:32.820Z,4.95
2023-01-28T18:27:59.579Z,4.18
2023-01-28T18:30:26.069Z,4.28
2023-01-28T18:32:52.615Z,4.65
2023-01-28T18:35:19.471Z,4.80
2023-01-28T18:37:46.062Z,4.82
2023-01-28T18:40:12.935Z,4.25
2023-01-28T18:42:39.960Z,4.43
2023-01-28T18:45:06.947Z,4.35
2023-01-28T18:47:33.449Z,4.60
2023-01-28T18:50:00.177Z,4.15
2023-01-28T18:52:26.910Z,4.47
2023-01-28T18:54:54.375Z,4.68
2023-01-28T18:57:21.213Z,4.63
2023-01-28T18:59:47.707Z,4.22
2023-01-28T19:02:15.670Z,4.95
2023-01-28T19:04:42.988Z,4.20
2023-01-28T19:07:11.813Z,4.70
2023-01-28T19:09:38.558Z,4.82
2023-01-28T19:12:05.858Z,4.30
2023-01-28T19:14:32.560Z,3.95
2023-01-28T19:16:59.274Z,4.35
2023-01-28T19:19:26.126Z,4.13
2023-01-28T19:21:53.533Z,4.53
2023-01-28T19:24:20.175Z,4.95
2023-01-28T19:26:47.409Z,4.32
2023-01-28T19:29:16.230Z,5.18
2023-01-28T19:31:44.389Z,4.90
2023-01-28T19:34:11.632Z,4.85
2023-01-28T19:36:38.608Z,4.65
2023-01-28T19:39:08.397Z,4.32
2023-01-28T19:41:36.159Z,4.65
2023-01-28T19:44:03.355Z,4.40
2023-01-28T19:46:30.039Z,4.45
2023-01-28T19:48:57.033Z,4.03
2023-01-28T19:51:24.015Z,5.15
2023-01-28T19:53:52.485Z,5.10
2023-01-28T19:56:20.347Z,5.32
2023-01-28T19:58:47.202Z,5.18
2023-01-28T20:01:16.589Z,5.10
2023-01-28T20:03:43.737Z,4.50
2023-01-28T20:06:15.819Z,4.78
2023-01-28T20:08:43.327Z,4.38
2023-01-28T20:11:13.514Z,3.90
2023-01-28T20:13:42.146Z,4.40
2023-01-28T20:16:14.056Z,4.63
2023-01-28T20:18:40.821Z,4.93
2023-01-28T20:21:07.622Z,4.53
2023-01-28T20:23:34.220Z,5.00
2023-01-28T20:26:01.258Z,5.15
2023-01-28T20:28:27.921Z,4.82
2023-01-28T20:30:55.565Z,5.13
2023-01-28T20:33:22.441Z,4.82
2023-01-28T20:35:49.020Z,4.45
2023-01-28T20:38:15.538Z,4.82
2023-01-28T20:40:45.204Z,4.93
2023-01-28T20:43:11.955Z,5.25
2023-01-28T20:45:38.486Z,5.15
2023-01-28T20:48:05.413Z,4.10
2023-01-28T20:50:32.000Z,5.47
2023-01-28T20:52:58.603Z,4.40
2023-01-28T20:55:25.424Z,4.38
2023-01-28T20:57:52.565Z,4.63
2023-01-28T21:00:19.913Z,4.95
2023-01-28T21:02:46.960Z,4.50
2023-01-28T21:05:13.655Z,4.65
2023-01-28T21:07:40.164Z,5.03
2023-01-28T21:10:07.453Z,5.28
2023-01-28T21:12:34.702Z,4.80
2023-01-28T21:15:01.238Z,4.85
2023-01-28T21:17:27.920Z,5.38
2023-01-28T21:19:54.442Z,5.13
2023-01-28T21:22:20.966Z,4.78
2023-01-28T21:24:49.229Z,4.63
2023-01-28T21:27:15.799Z,5.20
2023-01-28T21:29:42.630Z,5.13
2023-01-28T21:32:09.907Z,4.55
2023-01-28T21:34:36.485Z,4.72
2023-01-28T21:37:03.000Z,4.78
2023-01-28T21:39:29.641Z,4.43
2023-01-28T21:41:56.140Z,4.93
2023-01-28T21:44:22.738Z,5.03
2023-01-28T21:46:49.532Z,4.68
2023-01-28T21:49:16.080Z,4.15
2023-01-28T21:51:48.231Z,4.65
2023-01-28T21:54:17.406Z,5.20
2023-01-28T21:56:45.315Z,4.60
2023-01-28T21:59:28.735Z,5.53
2023-01-28T22:02:02.902Z,4.90
2023-01-28T22:04:35.066Z,5.07
2023-01-28T22:07:03.261Z,5.35
2023-01-28T22:09:33.289Z,4.68
2023-01-28T22:12:00.629Z,4.30
2023-01-28T22:14:27.554Z,5.20
2023-01-28T22:16:54.160Z,4.68
2023-01-28T22:19:20.974Z,5.28
2023-01-28T22:21:48.241Z,4.78
2023-01-28T22:24:17.794Z,4.78
2023-01-28T22:26:46.291Z,4.63
2023-01-28T22:29:13.994Z,5.13
2023-01-28T22:31:40.901Z,5.60
2023-01-28T22:34:08.151Z,5.45
2023-01-28T22:36:35.271Z,4.90
2023-01-28T22:39:03.415Z,5.13
2023-01-28T22:41:30.411Z,6.07
2023-01-28T22:43:57.067Z,5.88
2023-01-28T22:46:24.903Z,5.82
2023-01-28T22:48:51.910Z,5.45
2023-01-28T22:51:24.394Z,6.10
2023-01-28T22:53:52.320Z,6.35
2023-01-28T22:56:22.392Z,5.75
2023-01-28T22:58:52.492Z,6.55
2023-01-28T23:01:19.196Z,6.20
2023-01-28T23:03:47.450Z,6.50
2023-01-28T23:06:16.621Z,5.22
2023-01-28T23:08:43.836Z,5.18
2023-01-28T23:11:25.350Z,6.00
2023-01-28T23:14:13.222Z,5.93
2023-01-28T23:16:58.728Z,5.80
2023-01-28T23:19:43.932Z,6.25
2023-01-28T23:22:34.889Z,5.95
2023-01-28T23:25:01.576Z,6.47
2023-01-28T23:27:28.125Z,6.15
2023-01-28T23:29:54.625Z,6.20
2023-01-28T23:32:21.977Z,5.68
2023-01-28T23:34:48.565Z,6.05
2023-01-28T23:37:15.083Z,5.88
2023-01-28T23:39:43.038Z,6.18
2023-01-28T23:42:14.561Z,5.93
2023-01-28T23:44:41.294Z,5.95
2023-01-28T23:47:08.504Z,6.20
2023-01-28T23:49:35.088Z,6.25
2023-01-28T23:52:02.889Z,6.28
2023-01-28T23:54:30.137Z,5.65
2023-01-28T23:56:56.616Z,6.38
2023-01-28T23:59:23.088Z,6.72
